sensor_id;sensor_type;location;lat;lon;timestamp;pressure;altitude;pressure_sealevel;temperature;humidity
33795;BME280;51430;52.242;21.118;2023-03-03T00:02:56;100710.77;;;-1.20;95.13
33795;BME280;51430;52.242;21.118;2023-03-03T00:05:46;100709.77;;;-1.13;95.36
33795;BME280;51430;52.242;21.118;2023-03-03T00:08:33;100707.48;;;-1.10;95.49
33795;BME280;51430;52.242;21.118;2023-03-03T00:11:20;100705.56;;;-1.08;95.55
33795;BME280;51430;52.242;21.118;2023-03-03T00:14:21;100700.46;;;-1.03;95.92
33795;BME280;51430;52.242;21.118;2023-03-03T00:17:22;100696.61;;;-0.92;96.34
33795;BME280;51430;52.242;21.118;2023-03-03T00:20:39;100702.23;;;-0.83;96.72
33795;BME280;51430;52.242;21.118;2023-03-03T00:26:26;100695.13;;;-0.73;97.12
33795;BME280;51430;52.242;21.118;2023-03-03T00:29:35;100682.91;;;-0.57;97.16
33795;BME280;51430;52.242;21.118;2023-03-03T00:32:23;100681.27;;;-0.53;97.37
33795;BME280;51430;52.242;21.118;2023-03-03T00:35:23;100678.44;;;-0.49;97.80
33795;BME280;51430;52.242;21.118;2023-03-03T00:38:16;100675.09;;;-0.46;97.77
33795;BME280;51430;52.242;21.118;2023-03-03T00:41:10;100663.59;;;-0.32;97.75
33795;BME280;51430;52.242;21.118;2023-03-03T00:44:28;100665.28;;;-0.24;97.83
33795;BME280;51430;52.242;21.118;2023-03-03T00:50:30;100654.05;;;-0.21;97.78
33795;BME280;51430;52.242;21.118;2023-03-03T00:53:21;100649.45;;;-0.16;97.74
33795;BME280;51430;52.242;21.118;2023-03-03T00:56:08;100649.88;;;-0.13;97.68
33795;BME280;51430;52.242;21.118;2023-03-03T00:58:55;100644.66;;;-0.16;97.35
33795;BME280;51430;52.242;21.118;2023-03-03T01:01:54;100648.14;;;-0.12;97.34
33795;BME280;51430;52.242;21.118;2023-03-03T01:04:44;100643.71;;;-0.06;97.33
33795;BME280;51430;52.242;21.118;2023-03-03T01:07:34;100637.39;;;-0.01;97.51
33795;BME280;51430;52.242;21.118;2023-03-03T01:10:21;100640.70;;;-0.03;97.44
33795;BME280;51430;52.242;21.118;2023-03-03T01:13:11;100632.67;;;-0.04;97.19
33795;BME280;51430;52.242;21.118;2023-03-03T01:16:00;100630.73;;;-0.08;97.29
33795;BME280;51430;52.242;21.118;2023-03-03T01:18:47;100626.71;;;-0.05;97.25
33795;BME280;51430;52.242;21.118;2023-03-03T01:21:34;100621.38;;;-0.04;97.13
33795;BME280;51430;52.242;21.118;2023-03-03T01:24:21;100613.59;;;-0.01;97.15
33795;BME280;51430;52.242;21.118;2023-03-03T01:27:08;100611.49;;;0.00;97.30
33795;BME280;51430;52.242;21.118;2023-03-03T01:29:55;100607.52;;;0.01;97.21
33795;BME280;51430;52.242;21.118;2023-03-03T01:32:43;100600.81;;;0.01;97.16
33795;BME280;51430;52.242;21.118;2023-03-03T01:35:29;100600.30;;;0.02;97.13
33795;BME280;51430;52.242;21.118;2023-03-03T01:38:16;100598.05;;;-0.03;97.17
33795;BME280;51430;52.242;21.118;2023-03-03T01:41:03;100595.66;;;0.02;97.26
33795;BME280;51430;52.242;21.118;2023-03-03T01:48:40;100579.65;;;-0.13;97.40
33795;BME280;51430;52.242;21.118;2023-03-03T01:51:31;100580.27;;;-0.11;97.60
33795;BME280;51430;52.242;21.118;2023-03-03T01:54:37;100582.09;;;-0.08;97.85
33795;BME280;51430;52.242;21.118;2023-03-03T01:57:35;100583.19;;;-0.10;97.70
33795;BME280;51430;52.242;21.118;2023-03-03T02:00:26;100582.48;;;-0.09;97.79
33795;BME280;51430;52.242;21.118;2023-03-03T02:03:15;100586.54;;;-0.08;97.82
33795;BME280;51430;52.242;21.118;2023-03-03T02:06:07;100584.84;;;-0.08;97.61
33795;BME280;51430;52.242;21.118;2023-03-03T02:12:08;100579.07;;;-0.10;97.75
33795;BME280;51430;52.242;21.118;2023-03-03T02:14:57;100580.13;;;0.00;97.81
33795;BME280;51430;52.242;21.118;2023-03-03T02:17:45;100579.61;;;0.12;97.71
33795;BME280;51430;52.242;21.118;2023-03-03T02:23:49;100583.61;;;0.10;97.83
33795;BME280;51430;52.242;21.118;2023-03-03T02:26:39;100581.25;;;0.15;97.58
33795;BME280;51430;52.242;21.118;2023-03-03T02:29:26;100579.56;;;0.20;97.22
33795;BME280;51430;52.242;21.118;2023-03-03T02:32:13;100578.17;;;0.20;97.18
33795;BME280;51430;52.242;21.118;2023-03-03T02:35:00;100579.48;;;0.22;97.24
33795;BME280;51430;52.242;21.118;2023-03-03T02:37:49;100575.48;;;0.24;97.02
33795;BME280;51430;52.242;21.118;2023-03-03T02:40:41;100577.27;;;0.27;97.19
33795;BME280;51430;52.242;21.118;2023-03-03T02:43:54;100581.66;;;0.29;97.17
33795;BME280;51430;52.242;21.118;2023-03-03T02:46:46;100575.27;;;0.25;97.28
33795;BME280;51430;52.242;21.118;2023-03-03T02:49:34;100573.02;;;0.31;97.34
33795;BME280;51430;52.242;21.118;2023-03-03T02:52:21;100568.56;;;0.32;97.32
33795;BME280;51430;52.242;21.118;2023-03-03T02:55:35;100571.52;;;0.36;97.41
33795;BME280;51430;52.242;21.118;2023-03-03T02:58:22;100565.41;;;0.34;97.17
33795;BME280;51430;52.242;21.118;2023-03-03T03:01:09;100562.77;;;0.42;97.11
33795;BME280;51430;52.242;21.118;2023-03-03T03:03:59;100563.36;;;0.45;97.10
33795;BME280;51430;52.242;21.118;2023-03-03T03:06:46;100561.50;;;0.49;96.84
33795;BME280;51430;52.242;21.118;2023-03-03T03:09:33;100557.52;;;0.45;96.87
33795;BME280;51430;52.242;21.118;2023-03-03T03:12:26;100553.13;;;0.43;97.06
33795;BME280;51430;52.242;21.118;2023-03-03T03:15:12;100553.79;;;0.38;97.03
33795;BME280;51430;52.242;21.118;2023-03-03T03:18:01;100549.35;;;0.38;96.76
33795;BME280;51430;52.242;21.118;2023-03-03T03:20:48;100552.70;;;0.35;96.75
33795;BME280;51430;52.242;21.118;2023-03-03T03:23:35;100555.67;;;0.27;96.97
33795;BME280;51430;52.242;21.118;2023-03-03T03:26:27;100557.56;;;0.22;96.82
33795;BME280;51430;52.242;21.118;2023-03-03T03:29:14;100557.52;;;0.17;97.08
33795;BME280;51430;52.242;21.118;2023-03-03T03:32:00;100555.69;;;0.16;97.20
33795;BME280;51430;52.242;21.118;2023-03-03T03:34:48;100560.96;;;0.11;97.41
33795;BME280;51430;52.242;21.118;2023-03-03T03:37:35;100554.89;;;0.08;97.41
33795;BME280;51430;52.242;21.118;2023-03-03T03:40:23;100552.59;;;0.04;97.33
33795;BME280;51430;52.242;21.118;2023-03-03T03:43:12;100555.04;;;0.03;97.40
33795;BME280;51430;52.242;21.118;2023-03-03T03:45:58;100557.20;;;-0.01;97.53
33795;BME280;51430;52.242;21.118;2023-03-03T03:48:45;100558.96;;;-0.08;97.47
33795;BME280;51430;52.242;21.118;2023-03-03T03:51:35;100552.92;;;-0.13;97.57
33795;BME280;51430;52.242;21.118;2023-03-03T03:54:27;100550.38;;;-0.14;97.82
33795;BME280;51430;52.242;21.118;2023-03-03T03:57:14;100545.33;;;-0.05;97.79
33795;BME280;51430;52.242;21.118;2023-03-03T04:00:00;100533.17;;;-0.11;97.94
33795;BME280;51430;52.242;21.118;2023-03-03T04:02:54;100532.12;;;-0.16;98.01
33795;BME280;51430;52.242;21.118;2023-03-03T04:05:41;100533.33;;;-0.16;98.14
33795;BME280;51430;52.242;21.118;2023-03-03T04:08:28;100533.29;;;-0.21;98.15
33795;BME280;51430;52.242;21.118;2023-03-03T04:11:15;100528.88;;;-0.22;98.04
33795;BME280;51430;52.242;21.118;2023-03-03T04:14:28;100528.73;;;-0.17;98.34
33795;BME280;51430;52.242;21.118;2023-03-03T04:17:20;100529.67;;;-0.26;98.36
33795;BME280;51430;52.242;21.118;2023-03-03T04:20:10;100527.46;;;-0.27;98.56
33795;BME280;51430;52.242;21.118;2023-03-03T04:22:58;100524.61;;;-0.29;98.47
33795;BME280;51430;52.242;21.118;2023-03-03T04:25:47;100524.09;;;-0.28;98.40
33795;BME280;51430;52.242;21.118;2023-03-03T04:28:35;100518.27;;;-0.28;98.40
33795;BME280;51430;52.242;21.118;2023-03-03T04:31:21;100512.41;;;-0.27;98.58
33795;BME280;51430;52.242;21.118;2023-03-03T04:34:09;100510.20;;;-0.22;98.94
33795;BME280;51430;52.242;21.118;2023-03-03T04:36:56;100507.08;;;-0.20;99.00
33795;BME280;51430;52.242;21.118;2023-03-03T04:39:44;100512.52;;;-0.20;99.33
33795;BME280;51430;52.242;21.118;2023-03-03T04:42:31;100508.48;;;-0.22;99.17
33795;BME280;51430;52.242;21.118;2023-03-03T04:45:18;100507.79;;;-0.27;98.64
33795;BME280;51430;52.242;21.118;2023-03-03T04:48:05;100508.45;;;-0.32;98.76
33795;BME280;51430;52.242;21.118;2023-03-03T04:50:52;100500.52;;;-0.24;98.67
33795;BME280;51430;52.242;21.118;2023-03-03T04:53:40;100490.44;;;-0.25;98.94
33795;BME280;51430;52.242;21.118;2023-03-03T04:56:29;100494.10;;;-0.22;99.01
33795;BME280;51430;52.242;21.118;2023-03-03T04:59:18;100484.27;;;-0.20;99.20
33795;BME280;51430;52.242;21.118;2023-03-03T05:02:05;100490.83;;;-0.16;99.34
33795;BME280;51430;52.242;21.118;2023-03-03T05:04:52;100485.31;;;-0.14;99.15
33795;BME280;51430;52.242;21.118;2023-03-03T05:07:39;100480.09;;;-0.12;99.29
33795;BME280;51430;52.242;21.118;2023-03-03T05:10:26;100472.55;;;-0.12;99.06
33795;BME280;51430;52.242;21.118;2023-03-03T05:13:18;100475.70;;;-0.14;99.13
33795;BME280;51430;52.242;21.118;2023-03-03T05:16:06;100479.01;;;-0.15;99.00
33795;BME280;51430;52.242;21.118;2023-03-03T05:19:00;100486.42;;;-0.17;98.97
33795;BME280;51430;52.242;21.118;2023-03-03T05:21:47;100488.20;;;-0.20;98.58
33795;BME280;51430;52.242;21.118;2023-03-03T05:24:34;100489.08;;;-0.20;98.67
33795;BME280;51430;52.242;21.118;2023-03-03T05:27:21;100483.66;;;-0.22;98.40
33795;BME280;51430;52.242;21.118;2023-03-03T05:30:10;100477.47;;;-0.21;98.46
33795;BME280;51430;52.242;21.118;2023-03-03T05:32:57;100469.86;;;-0.13;98.22
33795;BME280;51430;52.242;21.118;2023-03-03T05:43:09;100475.14;;;0.21;99.03
33795;BME280;51430;52.242;21.118;2023-03-03T05:47:12;100479.92;;;0.27;99.23
33795;BME280;51430;52.242;21.118;2023-03-03T05:49:59;100477.27;;;0.29;98.99
33795;BME280;51430;52.242;21.118;2023-03-03T05:52:51;100478.95;;;0.46;98.71
33795;BME280;51430;52.242;21.118;2023-03-03T05:55:38;100476.55;;;0.56;97.89
33795;BME280;51430;52.242;21.118;2023-03-03T05:58:27;100473.98;;;0.67;97.61
33795;BME280;51430;52.242;21.118;2023-03-03T06:01:13;100470.19;;;0.77;96.85
33795;BME280;51430;52.242;21.118;2023-03-03T06:07:51;100467.09;;;1.31;96.17
33795;BME280;51430;52.242;21.118;2023-03-03T06:11:00;100463.17;;;1.48;95.25
33795;BME280;51430;52.242;21.118;2023-03-03T06:13:49;100465.27;;;1.47;93.95
33795;BME280;51430;52.242;21.118;2023-03-03T06:16:36;100469.36;;;1.48;93.34
33795;BME280;51430;52.242;21.118;2023-03-03T06:19:23;100474.71;;;1.52;92.63
33795;BME280;51430;52.242;21.118;2023-03-03T06:22:10;100475.28;;;1.59;92.32
33795;BME280;51430;52.242;21.118;2023-03-03T06:25:40;100482.06;;;1.62;91.60
33795;BME280;51430;52.242;21.118;2023-03-03T06:29:37;100484.98;;;1.57;92.04
33795;BME280;51430;52.242;21.118;2023-03-03T06:32:28;100482.97;;;1.65;92.03
33795;BME280;51430;52.242;21.118;2023-03-03T06:35:14;100480.02;;;2.10;91.34
33795;BME280;51430;52.242;21.118;2023-03-03T06:38:03;100483.32;;;2.69;90.25
33795;BME280;51430;52.242;21.118;2023-03-03T06:40:49;100482.98;;;3.12;86.98
33795;BME280;51430;52.242;21.118;2023-03-03T06:43:37;100485.45;;;3.61;85.49
33795;BME280;51430;52.242;21.118;2023-03-03T06:46:44;100485.08;;;3.62;83.71
33795;BME280;51430;52.242;21.118;2023-03-03T06:50:11;100488.11;;;2.93;84.11
33795;BME280;51430;52.242;21.118;2023-03-03T06:54:20;100494.58;;;2.29;85.23
33795;BME280;51430;52.242;21.118;2023-03-03T06:57:21;100483.37;;;1.77;86.72
33795;BME280;51430;52.242;21.118;2023-03-03T07:00:22;100484.33;;;1.29;88.29
33795;BME280;51430;52.242;21.118;2023-03-03T07:03:14;100482.07;;;1.20;89.12
33795;BME280;51430;52.242;21.118;2023-03-03T07:06:12;100487.68;;;1.31;89.38
33795;BME280;51430;52.242;21.118;2023-03-03T07:09:00;100490.75;;;1.17;89.86
33795;BME280;51430;52.242;21.118;2023-03-03T07:11:59;100489.50;;;1.18;90.61
33795;BME280;51430;52.242;21.118;2023-03-03T07:14:51;100489.26;;;1.25;90.41
33795;BME280;51430;52.242;21.118;2023-03-03T07:17:44;100494.08;;;1.34;90.47
33795;BME280;51430;52.242;21.118;2023-03-03T07:23:27;100485.41;;;1.12;90.50
33795;BME280;51430;52.242;21.118;2023-03-03T07:27:27;100479.84;;;1.05;91.72
33795;BME280;51430;52.242;21.118;2023-03-03T07:30:26;100474.05;;;0.99;91.95
33795;BME280;51430;52.242;21.118;2023-03-03T07:33:26;100474.23;;;1.09;92.10
33795;BME280;51430;52.242;21.118;2023-03-03T07:36:33;100483.85;;;0.99;92.12
33795;BME280;51430;52.242;21.118;2023-03-03T07:44:58;100484.70;;;0.99;93.48
33795;BME280;51430;52.242;21.118;2023-03-03T07:47:45;100492.48;;;0.92;93.63
33795;BME280;51430;52.242;21.118;2023-03-03T07:50:33;100495.45;;;1.25;93.72
33795;BME280;51430;52.242;21.118;2023-03-03T07:53:28;100492.42;;;1.46;92.94
33795;BME280;51430;52.242;21.118;2023-03-03T07:56:32;100494.66;;;1.51;92.04
33795;BME280;51430;52.242;21.118;2023-03-03T07:59:22;100500.00;;;1.41;91.49
33795;BME280;51430;52.242;21.118;2023-03-03T08:02:32;100499.55;;;1.21;92.02
33795;BME280;51430;52.242;21.118;2023-03-03T08:17:35;100511.54;;;2.00;90.55
33795;BME280;51430;52.242;21.118;2023-03-03T08:31:32;100526.39;;;2.07;88.42
33795;BME280;51430;52.242;21.118;2023-03-03T08:35:08;100530.94;;;2.05;88.68
33795;BME280;51430;52.242;21.118;2023-03-03T08:38:57;100530.83;;;1.99;89.11
33795;BME280;51430;52.242;21.118;2023-03-03T08:41:46;100536.26;;;2.05;89.66
33795;BME280;51430;52.242;21.118;2023-03-03T08:44:31;100556.70;;;2.41;89.54
33795;BME280;51430;52.242;21.118;2023-03-03T08:47:17;100558.09;;;2.45;88.66
33795;BME280;51430;52.242;21.118;2023-03-03T08:50:06;100550.94;;;2.35;88.38
33795;BME280;51430;52.242;21.118;2023-03-03T09:22:35;100538.30;;;1.88;89.04
33795;BME280;51430;52.242;21.118;2023-03-03T09:36:37;100511.36;;;2.31;86.21
33795;BME280;51430;52.242;21.118;2023-03-03T09:39:38;100512.34;;;2.19;85.69
33795;BME280;51430;52.242;21.118;2023-03-03T09:43:17;100501.46;;;2.07;86.99
33795;BME280;51430;52.242;21.118;2023-03-03T09:49:34;100492.99;;;2.30;86.30
33795;BME280;51430;52.242;21.118;2023-03-03T09:59:04;100494.36;;;2.08;87.31
33795;BME280;51430;52.242;21.118;2023-03-03T10:18:05;100504.80;;;2.18;86.57
33795;BME280;51430;52.242;21.118;2023-03-03T10:24:28;100507.14;;;1.71;88.24
33795;BME280;51430;52.242;21.118;2023-03-03T10:27:38;100507.77;;;1.77;88.82
33795;BME280;51430;52.242;21.118;2023-03-03T10:33:40;100512.38;;;1.83;88.66
33795;BME280;51430;52.242;21.118;2023-03-03T10:42:51;100518.34;;;1.79;89.51
33795;BME280;51430;52.242;21.118;2023-03-03T10:49:04;100519.77;;;2.00;88.47
33795;BME280;51430;52.242;21.118;2023-03-03T10:52:01;100517.81;;;1.98;88.54
33795;BME280;51430;52.242;21.118;2023-03-03T11:01:41;100512.04;;;2.18;87.46
33795;BME280;51430;52.242;21.118;2023-03-03T11:07:53;100500.86;;;2.09;88.21
33795;BME280;51430;52.242;21.118;2023-03-03T11:23:10;100513.59;;;2.52;85.87
33795;BME280;51430;52.242;21.118;2023-03-03T11:25:50;100506.80;;;2.38;85.47
33795;BME280;51430;52.242;21.118;2023-03-03T11:32:18;100508.50;;;2.20;85.62
33795;BME280;51430;52.242;21.118;2023-03-03T11:41:37;100503.73;;;1.84;86.76
33795;BME280;51430;52.242;21.118;2023-03-03T11:44:40;100501.10;;;1.76;87.11
33795;BME280;51430;52.242;21.118;2023-03-03T11:47:37;100494.27;;;1.84;87.62
33795;BME280;51430;52.242;21.118;2023-03-03T11:50:39;100489.62;;;1.93;87.18
33795;BME280;51430;52.242;21.118;2023-03-03T11:53:34;100497.43;;;1.73;87.02
33795;BME280;51430;52.242;21.118;2023-03-03T11:56:45;100496.13;;;1.67;88.10
33795;BME280;51430;52.242;21.118;2023-03-03T11:59:37;100498.05;;;1.75;88.07
33795;BME280;51430;52.242;21.118;2023-03-03T12:02:38;100502.27;;;1.82;87.92
33795;BME280;51430;52.242;21.118;2023-03-03T12:05:46;100502.59;;;1.64;87.59
33795;BME280;51430;52.242;21.118;2023-03-03T12:11:31;100504.83;;;1.55;88.88
33795;BME280;51430;52.242;21.118;2023-03-03T12:17:59;100501.50;;;1.70;88.83
33795;BME280;51430;52.242;21.118;2023-03-03T12:36:09;100497.56;;;1.70;88.80
33795;BME280;51430;52.242;21.118;2023-03-03T12:42:55;100495.95;;;1.58;88.57
33795;BME280;51430;52.242;21.118;2023-03-03T12:45:24;100491.36;;;1.43;89.31
33795;BME280;51430;52.242;21.118;2023-03-03T12:48:31;100489.98;;;1.43;89.58
33795;BME280;51430;52.242;21.118;2023-03-03T12:54:51;100489.39;;;1.50;89.98
33795;BME280;51430;52.242;21.118;2023-03-03T12:57:52;100490.09;;;1.58;89.40
33795;BME280;51430;52.242;21.118;2023-03-03T13:03:55;100497.23;;;1.61;90.29
33795;BME280;51430;52.242;21.118;2023-03-03T13:06:58;100491.17;;;1.62;90.11
33795;BME280;51430;52.242;21.118;2023-03-03T13:10:12;100482.70;;;1.64;90.04
33795;BME280;51430;52.242;21.118;2023-03-03T13:13:10;100488.70;;;1.77;89.77
33795;BME280;51430;52.242;21.118;2023-03-03T13:16:05;100489.98;;;1.71;89.62
33795;BME280;51430;52.242;21.118;2023-03-03T13:19:11;100486.31;;;1.72;89.64
33795;BME280;51430;52.242;21.118;2023-03-03T13:22:12;100487.80;;;1.69;89.44
33795;BME280;51430;52.242;21.118;2023-03-03T13:28:20;100487.36;;;1.21;90.90
33795;BME280;51430;52.242;21.118;2023-03-03T13:33:58;100486.52;;;1.20;92.24
33795;BME280;51430;52.242;21.118;2023-03-03T13:40:47;100484.00;;;1.24;91.88
33795;BME280;51430;52.242;21.118;2023-03-03T13:44:49;100471.84;;;1.08;91.89
33795;BME280;51430;52.242;21.118;2023-03-03T13:50:57;100464.80;;;1.03;92.79
33795;BME280;51430;52.242;21.118;2023-03-03T14:02:42;100459.08;;;1.05;91.86
33795;BME280;51430;52.242;21.118;2023-03-03T14:05:40;100453.33;;;1.17;91.83
33795;BME280;51430;52.242;21.118;2023-03-03T14:08:52;100454.95;;;1.33;91.65
33795;BME280;51430;52.242;21.118;2023-03-03T14:25:19;100456.48;;;1.34;89.60
33795;BME280;51430;52.242;21.118;2023-03-03T14:28:45;100455.15;;;1.28;89.33
33795;BME280;51430;52.242;21.118;2023-03-03T14:31:39;100460.43;;;1.25;89.88
33795;BME280;51430;52.242;21.118;2023-03-03T14:54:27;100452.45;;;1.54;89.00
33795;BME280;51430;52.242;21.118;2023-03-03T14:58:38;100447.88;;;1.53;88.66
33795;BME280;51430;52.242;21.118;2023-03-03T15:01:33;100447.43;;;1.46;88.44
33795;BME280;51430;52.242;21.118;2023-03-03T15:31:37;100453.46;;;1.23;89.11
33795;BME280;51430;52.242;21.118;2023-03-03T15:34:50;100452.98;;;1.07;89.40
33795;BME280;51430;52.242;21.118;2023-03-03T15:38:39;100454.39;;;0.97;90.17
33795;BME280;51430;52.242;21.118;2023-03-03T15:53:28;100443.47;;;0.95;90.56
33795;BME280;51430;52.242;21.118;2023-03-03T15:56:47;100443.76;;;0.87;90.37
33795;BME280;51430;52.242;21.118;2023-03-03T16:02:56;100438.42;;;0.78;90.21
33795;BME280;51430;52.242;21.118;2023-03-03T16:06:04;100437.08;;;0.82;90.02
33795;BME280;51430;52.242;21.118;2023-03-03T16:09:07;100437.75;;;0.87;89.56
33795;BME280;51430;52.242;21.118;2023-03-03T16:12:27;100437.89;;;0.83;89.63
33795;BME280;51430;52.242;21.118;2023-03-03T16:18:57;100434.31;;;1.02;88.94
33795;BME280;51430;52.242;21.118;2023-03-03T16:22:20;100435.09;;;1.14;88.52
33795;BME280;51430;52.242;21.118;2023-03-03T16:26:00;100440.14;;;1.16;88.46
33795;BME280;51430;52.242;21.118;2023-03-03T16:28:58;100435.55;;;1.01;88.27
33795;BME280;51430;52.242;21.118;2023-03-03T16:31:54;100435.29;;;0.94;88.99
33795;BME280;51430;52.242;21.118;2023-03-03T16:35:28;100430.86;;;0.93;88.82
33795;BME280;51430;52.242;21.118;2023-03-03T16:38:02;100426.48;;;0.85;88.72
33795;BME280;51430;52.242;21.118;2023-03-03T16:43:53;100429.31;;;0.68;89.48
33795;BME280;51430;52.242;21.118;2023-03-03T17:31:45;100419.25;;;0.96;89.93
33795;BME280;51430;52.242;21.118;2023-03-03T17:45:34;100429.07;;;0.90;90.00
33795;BME280;51430;52.242;21.118;2023-03-03T17:57:08;100408.96;;;0.66;91.17
33795;BME280;51430;52.242;21.118;2023-03-03T18:03:24;100409.08;;;0.54;91.41
33795;BME280;51430;52.242;21.118;2023-03-03T18:09:40;100413.10;;;0.56;91.10
33795;BME280;51430;52.242;21.118;2023-03-03T18:12:59;100411.61;;;0.65;91.10
33795;BME280;51430;52.242;21.118;2023-03-03T18:21:01;100406.97;;;0.60;91.32
33795;BME280;51430;52.242;21.118;2023-03-03T18:25:18;100402.01;;;0.59;91.26
33795;BME280;51430;52.242;21.118;2023-03-03T19:05:46;100380.27;;;0.82;88.88
33795;BME280;51430;52.242;21.118;2023-03-03T19:08:53;100377.48;;;0.64;88.94
33795;BME280;51430;52.242;21.118;2023-03-03T19:11:53;100376.92;;;0.70;89.22
33795;BME280;51430;52.242;21.118;2023-03-03T19:14:40;100375.14;;;0.77;89.33
33795;BME280;51430;52.242;21.118;2023-03-03T19:24:00;100360.02;;;0.59;89.26
33795;BME280;51430;52.242;21.118;2023-03-03T19:27:34;100354.42;;;0.62;89.33
33795;BME280;51430;52.242;21.118;2023-03-03T19:32:10;100348.23;;;0.62;89.41
33795;BME280;51430;52.242;21.118;2023-03-03T19:35:26;100353.89;;;0.67;89.07
33795;BME280;51430;52.242;21.118;2023-03-03T19:57:45;100325.30;;;0.79;88.21
33795;BME280;51430;52.242;21.118;2023-03-03T20:03:59;100316.55;;;0.98;87.74
33795;BME280;51430;52.242;21.118;2023-03-03T20:23:50;100309.86;;;0.98;87.83
33795;BME280;51430;52.242;21.118;2023-03-03T20:26:56;100297.45;;;1.04;87.50
33795;BME280;51430;52.242;21.118;2023-03-03T20:30:02;100291.04;;;1.01;87.16
33795;BME280;51430;52.242;21.118;2023-03-03T20:33:06;100287.44;;;0.96;87.20
33795;BME280;51430;52.242;21.118;2023-03-03T20:36:07;100283.57;;;0.99;86.87
33795;BME280;51430;52.242;21.118;2023-03-03T20:39:06;100287.17;;;0.85;87.40
33795;BME280;51430;52.242;21.118;2023-03-03T20:48:08;100284.02;;;1.05;86.62
33795;BME280;51430;52.242;21.118;2023-03-03T20:51:18;100285.38;;;1.10;86.26
33795;BME280;51430;52.242;21.118;2023-03-03T21:00:42;100274.05;;;0.96;87.06
33795;BME280;51430;52.242;21.118;2023-03-03T21:03:36;100271.02;;;1.04;87.18
33795;BME280;51430;52.242;21.118;2023-03-03T21:06:35;100266.05;;;1.08;86.89
33795;BME280;51430;52.242;21.118;2023-03-03T21:09:35;100264.55;;;1.11;86.68
33795;BME280;51430;52.242;21.118;2023-03-03T21:12:29;100258.06;;;1.10;86.74
33795;BME280;51430;52.242;21.118;2023-03-03T21:15:31;100253.11;;;1.14;86.95
33795;BME280;51430;52.242;21.118;2023-03-03T21:18:25;100247.33;;;1.17;86.64
33795;BME280;51430;52.242;21.118;2023-03-03T21:21:12;100242.35;;;1.17;86.71
33795;BME280;51430;52.242;21.118;2023-03-03T21:23:59;100242.98;;;1.19;86.63
33795;BME280;51430;52.242;21.118;2023-03-03T21:26:57;100242.64;;;1.27;86.53
33795;BME280;51430;52.242;21.118;2023-03-03T21:30:07;100236.38;;;1.25;86.42
33795;BME280;51430;52.242;21.118;2023-03-03T21:32:55;100230.37;;;1.16;86.70
33795;BME280;51430;52.242;21.118;2023-03-03T21:36:03;100229.52;;;1.20;86.57
33795;BME280;51430;52.242;21.118;2023-03-03T21:38:52;100221.60;;;1.21;86.68
33795;BME280;51430;52.242;21.118;2023-03-03T21:41:53;100214.73;;;1.25;86.83
33795;BME280;51430;52.242;21.118;2023-03-03T21:44:45;100209.63;;;1.29;86.53
33795;BME280;51430;52.242;21.118;2023-03-03T21:47:35;100204.23;;;1.30;86.35
33795;BME280;51430;52.242;21.118;2023-03-03T21:50:21;100200.45;;;1.30;86.43
33795;BME280;51430;52.242;21.118;2023-03-03T21:53:08;100199.19;;;1.36;86.34
33795;BME280;51430;52.242;21.118;2023-03-03T21:55:55;100190.29;;;1.31;86.36
33795;BME280;51430;52.242;21.118;2023-03-03T21:58:43;100192.79;;;1.37;86.04
33795;BME280;51430;52.242;21.118;2023-03-03T22:01:29;100188.61;;;1.34;85.93
33795;BME280;51430;52.242;21.118;2023-03-03T22:04:16;100186.20;;;1.38;86.45
33795;BME280;51430;52.242;21.118;2023-03-03T22:07:03;100179.92;;;1.45;86.00
33795;BME280;51430;52.242;21.118;2023-03-03T22:09:53;100175.84;;;1.44;85.71
33795;BME280;51430;52.242;21.118;2023-03-03T22:12:40;100174.10;;;1.40;85.93
33795;BME280;51430;52.242;21.118;2023-03-03T22:15:33;100169.48;;;1.44;86.19
33795;BME280;51430;52.242;21.118;2023-03-03T22:18:20;100167.32;;;1.46;86.22
33795;BME280;51430;52.242;21.118;2023-03-03T22:21:06;100169.46;;;1.52;86.26
33795;BME280;51430;52.242;21.118;2023-03-03T22:23:54;100164.94;;;1.50;86.21
33795;BME280;51430;52.242;21.118;2023-03-03T22:26:41;100163.71;;;1.54;86.36
33795;BME280;51430;52.242;21.118;2023-03-03T22:29:28;100152.61;;;1.53;86.00
33795;BME280;51430;52.242;21.118;2023-03-03T22:32:15;100151.38;;;1.54;86.18
33795;BME280;51430;52.242;21.118;2023-03-03T22:35:02;100147.26;;;1.46;86.42
33795;BME280;51430;52.242;21.118;2023-03-03T22:37:49;100141.14;;;1.44;86.87
33795;BME280;51430;52.242;21.118;2023-03-03T22:40:36;100126.97;;;1.46;87.04
33795;BME280;51430;52.242;21.118;2023-03-03T22:43:23;100113.85;;;1.48;86.75
33795;BME280;51430;52.242;21.118;2023-03-03T22:46:11;100109.02;;;1.48;86.90
33795;BME280;51430;52.242;21.118;2023-03-03T22:48:58;100105.53;;;1.45;87.04
33795;BME280;51430;52.242;21.118;2023-03-03T22:51:45;100104.54;;;1.41;87.37
33795;BME280;51430;52.242;21.118;2023-03-03T22:54:31;100102.39;;;1.43;87.62
33795;BME280;51430;52.242;21.118;2023-03-03T22:57:18;100098.40;;;1.39;87.83
33795;BME280;51430;52.242;21.118;2023-03-03T23:00:10;100092.48;;;1.33;88.14
33795;BME280;51430;52.242;21.118;2023-03-03T23:02:57;100078.87;;;1.27;88.39
33795;BME280;51430;52.242;21.118;2023-03-03T23:05:44;100081.58;;;1.24;88.52
33795;BME280;51430;52.242;21.118;2023-03-03T23:08:31;100073.48;;;1.28;88.50
33795;BME280;51430;52.242;21.118;2023-03-03T23:11:19;100069.89;;;1.32;88.34
33795;BME280;51430;52.242;21.118;2023-03-03T23:14:07;100071.20;;;1.37;87.82
33795;BME280;51430;52.242;21.118;2023-03-03T23:16:54;100066.36;;;1.34;87.68
33795;BME280;51430;52.242;21.118;2023-03-03T23:19:42;100066.31;;;1.35;87.68
33795;BME280;51430;52.242;21.118;2023-03-03T23:22:32;100058.39;;;1.35;87.93
33795;BME280;51430;52.242;21.118;2023-03-03T23:25:20;100053.68;;;1.37;88.03